Time;durP1;ratioP1;P1;durP2;ratioP2;P2;SDS_P1;SDS_P2;PMS_P1;PMS_P2;Temp;Humidity;BMP_temperature;BMP_pressure;BME280_temperature;BME280_humidity;BME280_pressure;Samples;Min_cycle;Max_cycle;Signal;HPM_P1;HPM_P2
2023/06/07 00:02:00;;;;;;;14.02;4.00;;;23.80;58.60;;;;;;5025934;28;20033;-55
2023/06/07 00:04:26;;;;;;;10.10;4.00;;;23.70;58.70;;;;;;5026355;28;20396;-55
2023/06/07 00:07:00;;;;;;;9.48;4.10;;;23.70;58.70;;;;;;5025966;28;20038;-55
2023/06/07 00:09:27;;;;;;;10.63;3.95;;;23.60;58.80;;;;;;5026226;28;20026;-54
2023/06/07 00:11:53;;;;;;;13.20;4.05;;;23.60;58.90;;;;;;5026092;28;20041;-55
2023/06/07 00:14:19;;;;;;;12.45;4.00;;;23.60;59.00;;;;;;5027014;28;20060;-55
2023/06/07 00:16:45;;;;;;;12.07;3.95;;;23.60;59.80;;;;;;5042484;28;20030;-55
2023/06/07 00:19:11;;;;;;;11.57;3.47;;;23.50;59.20;;;;;;5025711;28;20034;-55
2023/06/07 00:21:38;;;;;;;10.20;3.70;;;23.50;59.20;;;;;;5025728;28;20109;-55
2023/06/07 00:24:04;;;;;;;14.20;4.03;;;23.50;59.30;;;;;;5037507;28;20036;-55
2023/06/07 00:26:29;;;;;;;9.75;3.63;;;23.50;59.40;;;;;;5030940;28;20041;-54
2023/06/07 00:28:55;;;;;;;6.43;3.42;;;23.50;59.50;;;;;;5051315;28;20034;-54
2023/06/07 00:31:20;;;;;;;7.45;4.00;;;23.40;59.50;;;;;;5048389;28;20465;-55
2023/06/07 00:33:46;;;;;;;6.28;3.17;;;23.40;59.60;;;;;;5045318;28;20029;-55
2023/06/07 00:36:11;;;;;;;9.82;3.60;;;23.40;59.70;;;;;;5045447;28;20029;-55
2023/06/07 00:38:37;;;;;;;7.65;3.70;;;23.40;59.80;;;;;;5045361;28;20033;-55
2023/06/07 00:41:03;;;;;;;6.05;3.08;;;23.30;59.80;;;;;;5046725;28;20060;-55
2023/06/07 00:43:28;;;;;;;9.32;2.97;;;23.30;59.90;;;;;;5052327;28;20028;-54
2023/06/07 00:45:54;;;;;;;6.03;3.60;;;23.30;60.00;;;;;;5051619;28;20030;-55
2023/06/07 00:48:19;;;;;;;8.32;3.28;;;23.30;60.10;;;;;;5041749;28;20446;-55
2023/06/07 00:50:45;;;;;;;7.63;2.92;;;23.10;60.20;;;;;;5025281;28;20041;-55
2023/06/07 00:53:11;;;;;;;7.63;3.10;;;23.20;60.20;;;;;;5026583;28;20363;-55
2023/06/07 00:55:36;;;;;;;9.52;3.28;;;23.20;60.20;;;;;;5025108;28;20089;-54
2023/06/07 00:58:02;;;;;;;6.70;3.22;;;23.20;60.30;;;;;;5025160;28;20423;-55
2023/06/07 01:00:28;;;;;;;6.90;3.10;;;23.20;61.10;;;;;;5043415;28;20029;-55
2023/06/07 01:02:55;;;;;;;7.30;3.08;;;23.10;60.30;;;;;;5023531;28;20021;-55
2023/06/07 01:05:21;;;;;;;7.75;3.60;;;23.10;60.40;;;;;;5026329;28;20093;-55
2023/06/07 01:07:47;;;;;;;11.02;2.83;;;23.10;60.60;;;;;;5029760;28;20022;-55
2023/06/07 01:10:13;;;;;;;5.97;2.75;;;23.10;60.60;;;;;;5025056;28;20133;-54
2023/06/07 01:12:39;;;;;;;6.30;2.97;;;23.00;60.70;;;;;;5023609;28;20443;-55
2023/06/07 01:15:05;;;;;;;4.35;2.65;;;23.00;60.80;;;;;;5023904;28;20085;-55
2023/06/07 01:17:31;;;;;;;5.95;2.80;;;22.90;60.90;;;;;;5024909;28;20030;-54
2023/06/07 01:19:58;;;;;;;13.73;3.70;;;22.90;60.90;;;;;;5024617;28;20030;-55
2023/06/07 01:22:27;;;;;;;8.18;3.05;;;22.90;61.10;;;;;;5024753;28;20026;-54
2023/06/07 01:24:55;;;;;;;5.93;2.65;;;22.90;61.10;;;;;;5034976;28;20026;-54
2023/06/07 01:27:21;;;;;;;8.65;2.90;;;22.80;61.10;;;;;;5031306;28;20112;-55
2023/06/07 01:29:48;;;;;;;11.30;3.15;;;22.90;61.20;;;;;;5035101;28;20025;-54
2023/06/07 01:32:13;;;;;;;5.05;2.60;;;22.80;61.20;;;;;;5040761;28;20362;-54
2023/06/07 01:34:39;;;;;;;4.82;2.90;;;22.80;61.30;;;;;;5023579;28;20522;-55
2023/06/07 01:37:05;;;;;;;5.65;2.53;;;22.80;61.40;;;;;;5040457;28;20069;-54
2023/06/07 01:39:31;;;;;;;6.20;2.70;;;22.70;61.50;;;;;;5026354;28;20044;-55
2023/06/07 01:41:56;;;;;;;5.80;3.17;;;22.70;61.60;;;;;;5025438;28;20034;-54
2023/06/07 01:44:22;;;;;;;7.43;2.90;;;22.70;61.70;;;;;;5024430;28;20161;-55
2023/06/07 01:46:47;;;;;;;3.15;2.53;;;22.70;61.80;;;;;;5040735;28;20026;-55
2023/06/07 01:49:16;;;;;;;6.72;3.05;;;22.60;61.80;;;;;;5040688;28;20197;-55
2023/06/07 01:51:42;;;;;;;4.55;2.95;;;22.60;61.80;;;;;;5025407;28;20084;-54
2023/06/07 01:54:07;;;;;;;4.18;2.70;;;22.60;61.90;;;;;;5025047;28;20033;-54
2023/06/07 01:56:45;;;;;;;8.98;3.17;;;22.60;62.00;;;;;;5024593;28;20029;-55
2023/06/07 01:59:28;;;;;;;3.63;2.50;;;22.50;62.00;;;;;;5025749;28;20026;-55
2023/06/07 02:02:15;;;;;;;4.65;2.60;;;22.50;62.00;;;;;;5025442;28;20077;-55
2023/06/07 02:04:42;;;;;;;8.40;2.90;;;22.50;62.10;;;;;;5025383;28;20026;-55
2023/06/07 02:07:09;;;;;;;4.93;2.42;;;22.50;62.20;;;;;;5041079;28;20042;-54
2023/06/07 02:09:36;;;;;;;4.95;2.30;;;22.40;62.30;;;;;;5024704;28;20052;-54
2023/06/07 02:12:02;;;;;;;6.82;2.83;;;22.40;62.40;;;;;;5024845;28;20513;-55
2023/06/07 02:14:29;;;;;;;5.35;2.70;;;22.40;62.50;;;;;;5024022;28;20042;-55
2023/06/07 02:16:55;;;;;;;3.67;3.00;;;22.40;62.60;;;;;;5023931;28;20148;-55
2023/06/07 02:19:20;;;;;;;6.97;2.95;;;22.40;62.70;;;;;;5023829;28;20105;-55
2023/06/07 02:21:46;;;;;;;9.50;3.50;;;22.40;62.80;;;;;;5040180;28;20052;-54
2023/06/07 02:24:12;;;;;;;4.18;2.97;;;22.40;62.90;;;;;;5047285;28;20043;-54
2023/06/07 02:26:38;;;;;;;4.97;2.95;;;22.40;63.20;;;;;;5029428;28;20041;-55
2023/06/07 02:29:03;;;;;;;7.43;2.83;;;22.30;63.20;;;;;;5024752;28;20025;-55
2023/06/07 02:31:29;;;;;;;3.40;2.47;;;22.30;63.30;;;;;;5044131;28;20080;-55
2023/06/07 02:33:55;;;;;;;4.18;2.70;;;22.30;64.00;;;;;;5043108;28;20025;-55
2023/06/07 02:36:25;;;;;;;5.88;3.53;;;22.30;63.40;;;;;;5044462;28;20034;-55
2023/06/07 02:38:51;;;;;;;5.78;3.63;;;22.30;63.40;;;;;;5043153;28;20026;-55
2023/06/07 02:41:17;;;;;;;6.43;3.83;;;22.30;63.50;;;;;;5044829;28;20040;-55
2023/06/07 02:43:43;;;;;;;4.30;3.28;;;22.30;63.60;;;;;;5043315;28;20022;-55
2023/06/07 02:46:08;;;;;;;6.28;3.15;;;22.20;63.50;;;;;;5043553;28;20037;-54
2023/06/07 02:48:34;;;;;;;6.00;2.95;;;22.20;63.60;;;;;;5026853;28;20026;-55
2023/06/07 02:50:59;;;;;;;7.95;3.38;;;22.20;63.60;;;;;;5043369;28;20029;-55
2023/06/07 02:53:26;;;;;;;4.57;2.63;;;22.20;63.70;;;;;;5043298;28;20377;-55
2023/06/07 02:55:51;;;;;;;7.38;3.33;;;22.20;63.90;;;;;;5043207;28;20039;-55
2023/06/07 02:58:17;;;;;;;7.65;3.65;;;22.10;63.90;;;;;;5043194;28;20021;-54
2023/06/07 03:00:49;;;;;;;7.20;3.47;;;22.10;64.00;;;;;;5042982;28;20052;-54
2023/06/07 03:03:18;;;;;;;7.05;2.90;;;22.10;64.00;;;;;;5042980;28;20052;-55
2023/06/07 03:05:46;;;;;;;6.70;3.20;;;22.10;64.10;;;;;;5032588;28;20034;-55
2023/06/07 03:08:12;;;;;;;7.47;3.65;;;21.90;64.00;;;;;;5031984;28;20073;-55
2023/06/07 03:10:38;;;;;;;12.60;3.70;;;22.10;64.20;;;;;;5024641;28;20038;-55
2023/06/07 03:13:03;;;;;;;10.82;4.53;;;22.00;64.20;;;;;;5039449;28;20037;-54
2023/06/07 03:15:29;;;;;;;10.60;5.88;;;22.00;64.30;;;;;;5035150;28;20064;-55
2023/06/07 03:17:55;;;;;;;8.45;5.38;;;22.00;64.40;;;;;;5038702;28;20030;-55
2023/06/07 03:20:23;;;;;;;8.77;5.38;;;22.00;64.50;;;;;;5043083;28;20595;-55
2023/06/07 03:22:49;;;;;;;8.65;5.47;;;21.90;64.60;;;;;;5029309;28;20101;-55
2023/06/07 03:25:14;;;;;;;15.73;5.60;;;21.90;64.60;;;;;;5039851;28;20034;-54
2023/06/07 03:27:40;;;;;;;185.77;18.88;;;21.90;64.50;;;;;;5043952;28;20091;-55
2023/06/07 03:30:06;;;;;;;49.20;10.90;;;21.90;64.70;;;;;;5044119;28;20021;-55
2023/06/07 03:32:32;;;;;;;34.08;8.77;;;21.80;64.70;;;;;;5042841;28;20033;-55
2023/06/07 03:34:58;;;;;;;80.78;12.75;;;21.80;64.80;;;;;;5042749;28;20482;-55
2023/06/07 03:37:23;;;;;;;38.80;8.15;;;21.80;64.90;;;;;;5043706;28;20134;-55
2023/06/07 03:39:49;;;;;;;34.42;7.97;;;21.80;64.90;;;;;;5046621;28;20025;-55
2023/06/07 03:42:14;;;;;;;27.63;7.70;;;21.70;64.90;;;;;;5046474;28;20029;-55
2023/06/07 03:44:40;;;;;;;40.45;9.40;;;21.70;65.00;;;;;;5046478;28;20021;-54
2023/06/07 03:47:06;;;;;;;49.65;8.90;;;21.70;64.90;;;;;;5046391;28;20029;-55
2023/06/07 03:49:31;;;;;;;44.60;8.90;;;21.70;65.00;;;;;;5046111;28;20034;-55
2023/06/07 03:51:57;;;;;;;37.63;9.35;;;21.70;65.00;;;;;;5046304;28;20076;-55
2023/06/07 03:54:22;;;;;;;30.40;8.00;;;21.70;65.10;;;;;;5047568;28;20097;-55
2023/06/07 03:56:48;;;;;;;46.42;9.32;;;21.60;65.00;;;;;;5029758;28;20030;-54
2023/06/07 03:59:15;;;;;;;33.60;8.63;;;21.60;65.10;;;;;;5047750;28;20032;-55
2023/06/07 04:01:40;;;;;;;36.35;7.72;;;21.60;65.10;;;;;;5045977;28;20025;-55
2023/06/07 04:04:07;;;;;;;31.30;8.35;;;21.60;65.30;;;;;;5047624;28;20132;-55
2023/06/07 04:06:34;;;;;;;37.15;7.60;;;21.60;65.20;;;;;;5046155;28;20037;-55
2023/06/07 04:08:59;;;;;;;27.45;7.53;;;21.60;65.20;;;;;;5045847;28;20123;-54
2023/06/07 04:11:27;;;;;;;35.22;6.90;;;21.50;65.30;;;;;;5047627;28;20222;-54
2023/06/07 04:13:52;;;;;;;32.28;7.60;;;21.50;65.30;;;;;;5045799;28;20080;-55
2023/06/07 04:16:18;;;;;;;24.08;6.93;;;21.50;65.30;;;;;;5045759;28;20048;-54
2023/06/07 04:18:43;;;;;;;31.02;7.25;;;21.50;65.30;;;;;;5045916;28;20033;-54
2023/06/07 04:21:09;;;;;;;29.33;7.18;;;21.50;65.30;;;;;;5046005;28;20029;-55
2023/06/07 04:23:34;;;;;;;20.42;6.55;;;21.50;65.30;;;;;;5046395;28;20040;-55
2023/06/07 04:26:04;;;;;;;25.83;6.45;;;21.50;65.30;;;;;;5039531;28;20029;-54
2023/06/07 04:28:30;;;;;;;26.85;6.90;;;21.40;65.30;;;;;;5028258;28;20022;-55
2023/06/07 04:30:57;;;;;;;23.67;7.35;;;21.40;65.40;;;;;;5046057;28;20386;-54
2023/06/07 04:33:23;;;;;;;33.50;6.40;;;21.40;65.50;;;;;;5035117;28;20030;-55
2023/06/07 04:35:50;;;;;;;27.20;6.20;;;21.40;65.60;;;;;;5025887;28;20056;-55
2023/06/07 04:38:16;;;;;;;24.67;6.10;;;21.30;65.50;;;;;;5025984;28;20029;-54
2023/06/07 04:40:48;;;;;;;23.98;5.50;;;21.30;65.60;;;;;;5025345;28;20025;-55
2023/06/07 04:43:20;;;;;;;24.92;6.00;;;21.30;65.50;;;;;;5027242;28;20049;-54
2023/06/07 04:45:55;;;;;;;20.15;5.47;;;21.30;65.80;;;;;;5027207;28;20026;-54
2023/06/07 04:48:25;;;;;;;21.30;6.07;;;21.30;65.90;;;;;;5025760;28;20026;-55
2023/06/07 04:50:52;;;;;;;21.80;6.32;;;21.40;66.20;;;;;;5025093;28;20037;-54
2023/06/07 04:53:20;;;;;;;18.45;5.30;;;21.30;66.30;;;;;;5025328;28;20026;-55
2023/06/07 04:55:50;;;;;;;20.88;5.75;;;21.30;66.50;;;;;;5025635;28;20029;-54
2023/06/07 04:58:16;;;;;;;14.82;4.88;;;21.30;66.60;;;;;;5026894;28;20029;-54
2023/06/07 05:00:42;;;;;;;15.63;5.30;;;21.30;66.90;;;;;;5024679;28;20025;-54
2023/06/07 05:03:08;;;;;;;14.20;5.20;;;21.30;66.70;;;;;;5025146;28;20041;-54
2023/06/07 05:05:37;;;;;;;15.60;5.07;;;21.20;66.50;;;;;;5030953;28;20034;-55
2023/06/07 05:08:03;;;;;;;15.35;5.05;;;21.30;66.40;;;;;;5033635;28;20022;-54
2023/06/07 05:10:29;;;;;;;10.35;4.57;;;21.30;66.50;;;;;;5029030;28;20033;-55
2023/06/07 05:12:54;;;;;;;11.30;5.20;;;21.30;66.50;;;;;;5044835;28;20075;-54
2023/06/07 05:15:23;;;;;;;16.83;5.10;;;21.30;66.40;;;;;;5044423;28;20083;-54
2023/06/07 05:17:53;;;;;;;19.08;5.55;;;21.30;66.30;;;;;;5044630;28;20509;-54
2023/06/07 05:20:19;;;;;;;13.10;4.45;;;21.20;66.40;;;;;;5044625;28;20040;-55
2023/06/07 05:22:45;;;;;;;19.60;4.60;;;21.20;66.40;;;;;;5045021;28;20077;-55
2023/06/07 05:25:11;;;;;;;15.57;4.10;;;21.20;66.40;;;;;;5026840;28;20093;-54
2023/06/07 05:27:37;;;;;;;11.80;4.72;;;21.20;66.40;;;;;;5032033;28;20037;-55
2023/06/07 05:30:04;;;;;;;12.05;4.22;;;21.20;66.40;;;;;;5023872;28;20535;-54
2023/06/07 05:32:33;;;;;;;10.95;3.90;;;21.20;66.80;;;;;;5025779;28;20034;-54
2023/06/07 05:34:59;;;;;;;10.98;3.33;;;21.20;67.30;;;;;;5025799;28;20049;-55
2023/06/07 05:37:25;;;;;;;7.57;3.17;;;21.10;67.80;;;;;;5024609;28;20022;-54
2023/06/07 05:39:51;;;;;;;5.93;3.15;;;21.00;68.40;;;;;;5040586;28;20030;-55
2023/06/07 05:42:17;;;;;;;8.60;3.45;;;21.00;69.00;;;;;;5024263;28;20459;-55
2023/06/07 05:44:45;;;;;;;6.00;2.95;;;20.90;69.40;;;;;;5040837;28;20055;-55
2023/06/07 05:47:11;;;;;;;7.53;3.00;;;20.80;69.60;;;;;;5040768;28;20037;-54
2023/06/07 05:49:37;;;;;;;5.63;2.90;;;20.80;69.80;;;;;;5041077;28;20026;-54
2023/06/07 05:52:02;;;;;;;3.67;2.40;;;20.70;70.10;;;;;;5025688;28;20105;-55
2023/06/07 05:54:28;;;;;;;6.97;2.65;;;20.70;70.30;;;;;;5029812;28;20379;-55
2023/06/07 05:56:53;;;;;;;3.58;2.47;;;20.70;70.60;;;;;;5042609;28;20089;-54
2023/06/07 05:59:19;;;;;;;6.53;2.90;;;20.60;70.70;;;;;;5027201;28;20032;-55
2023/06/07 06:01:45;;;;;;;3.08;2.20;;;20.60;70.90;;;;;;5045166;28;20039;-54
2023/06/07 06:04:11;;;;;;;3.50;2.40;;;20.60;71.20;;;;;;5047350;28;20075;-54
2023/06/07 06:06:38;;;;;;;6.55;2.63;;;20.50;72.00;;;;;;5046627;28;20085;-55
2023/06/07 06:09:04;;;;;;;4.70;2.58;;;20.50;71.50;;;;;;5043303;28;20113;-54
2023/06/07 06:11:30;;;;;;;4.60;2.40;;;20.50;71.80;;;;;;5056835;28;20572;-55
2023/06/07 06:13:55;;;;;;;4.40;2.60;;;20.50;71.90;;;;;;5032509;28;20036;-54
2023/06/07 06:16:21;;;;;;;5.50;2.90;;;20.50;72.00;;;;;;5042599;28;20406;-54
2023/06/07 06:18:46;;;;;;;6.43;2.45;;;20.50;72.30;;;;;;5030844;28;20036;-54
2023/06/07 06:21:12;;;;;;;3.70;2.38;;;20.50;72.50;;;;;;5024078;28;20026;-54
2023/06/07 06:23:38;;;;;;;6.05;2.78;;;20.40;72.70;;;;;;5027523;28;20025;-54
2023/06/07 06:26:04;;;;;;;3.78;2.92;;;20.50;72.50;;;;;;5043464;28;20402;-54
2023/06/07 06:28:29;;;;;;;3.80;2.40;;;20.40;72.60;;;;;;5055302;28;20021;-54
2023/06/07 06:30:55;;;;;;;3.88;2.30;;;20.40;72.80;;;;;;5063560;28;20039;-54
2023/06/07 06:33:21;;;;;;;16.80;3.97;;;20.40;72.80;;;;;;5046145;28;20032;-55
2023/06/07 06:35:47;;;;;;;20.35;5.13;;;20.40;73.90;;;;;;5059760;28;20044;-54
2023/06/07 06:38:12;;;;;;;15.50;4.20;;;20.40;73.40;;;;;;5039609;28;20120;-54
2023/06/07 06:40:38;;;;;;;21.08;4.32;;;20.40;73.50;;;;;;5048644;28;20110;-54
2023/06/07 06:43:04;;;;;;;58.67;7.72;;;20.40;73.70;;;;;;5049671;28;20055;-55
2023/06/07 06:45:29;;;;;;;16.85;4.05;;;20.40;73.80;;;;;;5043366;28;20044;-54
2023/06/07 06:47:58;;;;;;;20.50;4.03;;;20.40;73.80;;;;;;5045387;28;20021;-54
2023/06/07 06:50:23;;;;;;;27.48;4.63;;;20.40;73.80;;;;;;5042303;28;20164;-54
2023/06/07 06:52:49;;;;;;;41.67;7.32;;;20.40;74.50;;;;;;5042500;28;20117;-53
2023/06/07 06:55:14;;;;;;;34.22;5.30;;;20.50;74.80;;;;;;5043933;28;20025;-54
2023/06/07 06:57:40;;;;;;;36.83;5.45;;;20.40;74.60;;;;;;5042960;28;20030;-54
2023/06/07 07:00:08;;;;;;;22.15;5.13;;;20.40;75.10;;;;;;5041719;28;20026;-54
2023/06/07 07:02:34;;;;;;;20.05;4.07;;;20.40;74.50;;;;;;5041344;28;20045;-54
2023/06/07 07:05:00;;;;;;;21.25;4.20;;;20.30;74.40;;;;;;5039519;28;20017;-54
2023/06/07 07:07:27;;;;;;;18.88;4.13;;;20.30;74.60;;;;;;5045506;28;20024;-54
2023/06/07 07:09:53;;;;;;;15.20;4.07;;;20.40;74.70;;;;;;5049310;28;20041;-54
2023/06/07 07:12:21;;;;;;;17.65;3.75;;;20.30;74.70;;;;;;5063544;28;20078;-54
2023/06/07 07:14:47;;;;;;;17.15;4.30;;;20.40;74.70;;;;;;5037765;28;20048;-54
2023/06/07 07:17:12;;;;;;;17.85;4.32;;;20.40;74.70;;;;;;5028137;28;20038;-54
2023/06/07 07:19:38;;;;;;;21.50;4.05;;;20.40;74.60;;;;;;5056577;28;20501;-54
2023/06/07 07:22:04;;;;;;;12.38;3.83;;;20.40;74.70;;;;;;5061101;28;20059;-54
2023/06/07 07:24:30;;;;;;;19.45;4.00;;;20.40;74.60;;;;;;5066930;28;20032;-54
2023/06/07 07:26:55;;;;;;;11.90;3.88;;;20.40;74.60;;;;;;5033310;28;20054;-55
2023/06/07 07:29:21;;;;;;;18.90;4.68;;;20.50;74.60;;;;;;5052211;28;20022;-54
2023/06/07 07:31:46;;;;;;;23.23;4.43;;;20.50;74.60;;;;;;5031177;28;20029;-54
2023/06/07 07:34:12;;;;;;;21.55;4.18;;;20.50;74.50;;;;;;5034451;28;20032;-54
2023/06/07 07:36:41;;;;;;;9.80;3.35;;;20.50;74.40;;;;;;5049183;28;20038;-54
2023/06/07 07:39:06;;;;;;;8.18;3.33;;;20.50;74.80;;;;;;5046055;28;20029;-54
2023/06/07 07:41:32;;;;;;;8.32;3.60;;;20.50;75.00;;;;;;5046476;28;20034;-54
2023/06/07 07:43:58;;;;;;;23.02;5.55;;;20.50;75.00;;;;;;5042562;28;20133;-54
2023/06/07 07:46:23;;;;;;;18.63;3.70;;;20.60;74.80;;;;;;5026454;28;20030;-54
2023/06/07 07:48:49;;;;;;;11.93;4.13;;;20.60;74.60;;;;;;5038706;28;20090;-54
2023/06/07 07:51:15;;;;;;;20.27;4.05;;;20.60;74.60;;;;;;5040074;28;20036;-54
2023/06/07 07:53:42;;;;;;;23.33;4.95;;;20.60;74.50;;;;;;5041717;28;20032;-54
2023/06/07 07:56:07;;;;;;;12.30;3.40;;;20.60;74.30;;;;;;5035842;28;20037;-54
2023/06/07 07:58:33;;;;;;;10.63;3.28;;;20.60;74.20;;;;;;5039380;28;20087;-54
2023/06/07 08:00:58;;;;;;;11.68;3.95;;;20.70;74.00;;;;;;5038471;28;20025;-54
2023/06/07 08:03:24;;;;;;;14.65;3.90;;;20.70;74.10;;;;;;5039655;28;20030;-54
2023/06/07 08:05:50;;;;;;;12.95;3.58;;;20.70;74.00;;;;;;5038663;28;20021;-54
2023/06/07 08:08:16;;;;;;;11.90;4.00;;;20.70;74.00;;;;;;5038826;28;20124;-54
2023/06/07 08:10:42;;;;;;;9.32;3.15;;;20.70;74.10;;;;;;5044918;28;20080;-54
2023/06/07 08:13:08;;;;;;;9.05;3.05;;;20.70;74.00;;;;;;5042347;28;20029;-54
2023/06/07 08:15:33;;;;;;;10.65;3.50;;;20.70;74.00;;;;;;5045119;28;20282;-54
2023/06/07 08:17:59;;;;;;;8.38;3.38;;;20.70;73.90;;;;;;5044441;28;20034;-54
2023/06/07 08:20:24;;;;;;;11.57;3.53;;;20.70;73.70;;;;;;5034254;28;20422;-54
2023/06/07 08:22:50;;;;;;;20.00;4.05;;;20.80;73.60;;;;;;5036591;28;20018;-54
2023/06/07 08:25:16;;;;;;;19.90;4.30;;;20.80;73.40;;;;;;5034555;28;20056;-54
2023/06/07 08:27:42;;;;;;;14.27;3.90;;;20.80;73.30;;;;;;5035715;28;20033;-54
2023/06/07 08:30:08;;;;;;;19.02;4.82;;;20.80;73.20;;;;;;5026324;28;20450;-54
2023/06/07 08:32:33;;;;;;;14.25;3.67;;;20.80;73.30;;;;;;5031393;28;20044;-54
2023/06/07 08:34:59;;;;;;;10.38;3.63;;;20.90;73.10;;;;;;5048278;28;20056;-55
2023/06/07 08:37:25;;;;;;;7.95;3.58;;;20.90;73.00;;;;;;5031376;28;20056;-54
2023/06/07 08:39:50;;;;;;;12.25;3.22;;;20.90;73.00;;;;;;5030951;28;20033;-54
2023/06/07 08:42:16;;;;;;;11.95;3.47;;;20.90;72.80;;;;;;5021627;28;20033;-54
2023/06/07 08:44:41;;;;;;;16.27;3.40;;;21.00;72.80;;;;;;5041160;28;20036;-54
2023/06/07 08:47:07;;;;;;;7.43;3.55;;;21.00;72.70;;;;;;5027228;28;20029;-55
2023/06/07 08:49:36;;;;;;;13.38;3.80;;;21.00;72.60;;;;;;5026737;28;20032;-54
2023/06/07 08:52:05;;;;;;;11.40;3.85;;;21.00;72.20;;;;;;5049838;28;20033;-54
2023/06/07 08:54:31;;;;;;;19.90;4.53;;;21.00;72.10;;;;;;5035010;28;20034;-54
2023/06/07 08:56:56;;;;;;;13.90;4.28;;;21.10;72.30;;;;;;5033056;28;20048;-54
2023/06/07 08:59:24;;;;;;;38.60;6.35;;;21.10;72.20;;;;;;5047076;28;20025;-55
2023/06/07 09:01:51;;;;;;;34.15;6.68;;;21.10;72.10;;;;;;5044032;28;20091;-54
2023/06/07 09:04:17;;;;;;;24.75;5.57;;;21.20;72.10;;;;;;5043489;28;20109;-55
2023/06/07 09:06:43;;;;;;;40.00;6.68;;;21.20;72.00;;;;;;5037539;28;20046;-54
2023/06/07 09:09:08;;;;;;;18.55;4.80;;;21.20;71.90;;;;;;5024153;28;20547;-54
2023/06/07 09:11:34;;;;;;;24.13;5.30;;;21.20;71.70;;;;;;5033048;28;20417;-54
2023/06/07 09:13:59;;;;;;;12.88;4.43;;;21.30;71.80;;;;;;5013280;28;20038;-55
2023/06/07 09:16:25;;;;;;;19.45;5.20;;;21.30;71.60;;;;;;5031943;28;20034;-54
2023/06/07 09:18:53;;;;;;;23.42;4.68;;;21.30;71.50;;;;;;5022515;28;20036;-54
2023/06/07 09:21:20;;;;;;;13.05;4.15;;;21.30;71.40;;;;;;5022435;28;20069;-54
2023/06/07 09:23:45;;;;;;;12.57;3.80;;;21.30;71.40;;;;;;5041207;28;20064;-54
2023/06/07 09:26:11;;;;;;;17.17;4.63;;;21.40;71.40;;;;;;5042912;28;20117;-54
2023/06/07 09:28:37;;;;;;;19.85;5.30;;;21.40;71.20;;;;;;5031468;28;20074;-54
2023/06/07 09:31:04;;;;;;;20.83;4.65;;;21.50;71.20;;;;;;5027858;28;20038;-54
2023/06/07 09:33:36;;;;;;;28.20;4.50;;;21.50;71.10;;;;;;5008229;28;20136;-54
2023/06/07 09:36:15;;;;;;;34.92;5.90;;;21.50;70.90;;;;;;5024448;28;20084;-55
2023/06/07 09:38:41;;;;;;;17.40;4.97;;;21.50;70.80;;;;;;5034017;28;20087;-54
2023/06/07 09:41:07;;;;;;;30.75;4.90;;;21.50;70.70;;;;;;5042365;28;20038;-54
2023/06/07 09:43:54;;;;;;;21.40;4.75;;;21.60;70.60;;;;;;5022504;28;20032;-54
2023/06/07 09:46:20;;;;;;;23.52;5.72;;;21.60;71.00;;;;;;5030324;28;20029;-54
2023/06/07 09:48:49;;;;;;;33.22;5.72;;;21.60;70.30;;;;;;5037177;28;20029;-55
2023/06/07 09:51:15;;;;;;;55.10;6.90;;;21.70;70.30;;;;;;5028566;28;20041;-54
2023/06/07 09:54:01;;;;;;;44.63;6.97;;;21.70;70.30;;;;;;5040476;28;20025;-54
2023/06/07 09:56:27;;;;;;;41.58;6.45;;;21.70;70.40;;;;;;5042108;28;20402;-54
2023/06/07 09:59:08;;;;;;;30.10;5.55;;;21.70;70.30;;;;;;5033238;28;20064;-55
2023/06/07 10:01:45;;;;;;;30.58;5.25;;;21.80;70.20;;;;;;5029111;28;20053;-55
2023/06/07 10:04:11;;;;;;;34.40;5.60;;;21.80;70.00;;;;;;5048101;28;20026;-55
2023/06/07 10:06:43;;;;;;;14.93;4.82;;;21.80;70.00;;;;;;5052797;28;20034;-55
2023/06/07 10:09:09;;;;;;;28.67;5.35;;;21.90;70.00;;;;;;5037057;28;20520;-55
2023/06/07 10:11:36;;;;;;;75.28;10.50;;;21.90;69.80;;;;;;5036398;28;20033;-55
2023/06/07 10:14:05;;;;;;;44.58;6.82;;;22.00;69.60;;;;;;5040768;28;20043;-55
2023/06/07 10:16:36;;;;;;;38.58;5.82;;;22.00;69.50;;;;;;5043823;28;20257;-55
2023/06/07 10:19:14;;;;;;;34.90;6.55;;;22.10;69.30;;;;;;5005393;28;20047;-55
2023/06/07 10:21:40;;;;;;;30.83;6.38;;;22.10;69.40;;;;;;5041785;28;20034;-55
2023/06/07 10:24:09;;;;;;;43.13;6.65;;;22.20;69.70;;;;;;5023563;28;20030;-54
2023/06/07 10:26:48;;;;;;;37.72;6.93;;;22.20;68.90;;;;;;5043711;28;20036;-55
2023/06/07 10:29:22;;;;;;;65.70;9.55;;;22.30;68.60;;;;;;5010289;28;20025;-54
2023/06/07 10:32:00;;;;;;;67.47;9.25;;;22.40;68.40;;;;;;5024436;28;20058;-55
2023/06/07 10:34:25;;;;;;;64.40;9.10;;;22.40;67.60;;;;;;5025137;28;20423;-55
2023/06/07 10:36:51;;;;;;;52.47;9.05;;;22.50;67.60;;;;;;5039848;28;20042;-54
2023/06/07 10:39:17;;;;;;;56.63;9.02;;;22.60;67.30;;;;;;5043736;28;20034;-55
2023/06/07 10:41:42;;;;;;;60.15;9.30;;;22.70;67.10;;;;;;5027935;28;20030;-55
2023/06/07 10:44:10;;;;;;;69.60;8.27;;;22.70;66.90;;;;;;5055975;28;20116;-55
2023/06/07 10:46:35;;;;;;;24.67;6.22;;;22.80;66.40;;;;;;5038003;28;20029;-55
2023/06/07 10:49:03;;;;;;;45.53;7.97;;;22.80;65.90;;;;;;5030064;28;20026;-55
2023/06/07 10:51:46;;;;;;;49.75;7.72;;;22.90;65.60;;;;;;5035029;28;20026;-55
2023/06/07 10:54:19;;;;;;;46.05;7.30;;;22.90;65.40;;;;;;5026986;28;20117;-55
2023/06/07 10:56:46;;;;;;;31.40;6.20;;;23.00;65.00;;;;;;5035807;28;20042;-55
2023/06/07 10:59:15;;;;;;;27.55;5.35;;;23.10;64.40;;;;;;5035540;28;20025;-55
2023/06/07 11:01:46;;;;;;;33.28;6.22;;;23.20;64.00;;;;;;5031968;28;20172;-54
2023/06/07 11:04:33;;;;;;;48.00;7.95;;;23.30;64.20;;;;;;5038958;28;20113;-55
2023/06/07 11:07:21;;;;;;;33.85;6.60;;;23.40;64.20;;;;;;5026877;28;20037;-55
2023/06/07 11:09:48;;;;;;;34.42;6.07;;;23.40;63.70;;;;;;5043583;28;20085;-54
2023/06/07 11:12:35;;;;;;;20.50;5.03;;;23.50;62.90;;;;;;5035603;28;20042;-55
2023/06/07 11:15:24;;;;;;;23.48;5.75;;;23.60;62.60;;;;;;5032467;28;20109;-55
2023/06/07 11:18:00;;;;;;;34.50;6.75;;;23.70;62.50;;;;;;5038033;28;20083;-55
2023/06/07 11:20:38;;;;;;;41.13;7.38;;;23.80;62.10;;;;;;5035300;28;20047;-55
2023/06/07 11:23:35;;;;;;;36.85;6.70;;;23.80;61.70;;;;;;5038141;28;20508;-54
2023/06/07 11:26:10;;;;;;;25.50;5.53;;;24.00;61.00;;;;;;5034045;28;20129;-54
2023/06/07 11:28:39;;;;;;;;;;;24.10;60.40;;;;;;5047964;28;20382;-55
2023/06/07 11:31:11;;;;;;;25.27;5.97;;;24.20;60.00;;;;;;5037760;28;19991;-55
2023/06/07 11:33:37;;;;;;;37.13;4.97;;;24.20;60.20;;;;;;5037532;28;20026;-55
2023/06/07 11:36:06;;;;;;;27.38;5.70;;;24.30;59.20;;;;;;5029919;28;20049;-54
2023/06/07 11:38:32;;;;;;;17.63;5.20;;;24.30;58.90;;;;;;5042248;28;20121;-55
2023/06/07 11:40:57;;;;;;;19.70;5.40;;;24.50;58.60;;;;;;5035876;28;20057;-55
2023/06/07 11:43:24;;;;;;;23.52;4.85;;;24.50;57.90;;;;;;5018074;28;20030;-55
2023/06/07 11:45:50;;;;;;;39.42;7.10;;;24.60;58.00;;;;;;5034667;28;20041;-53
2023/06/07 11:48:16;;;;;;;30.88;5.82;;;24.70;57.20;;;;;;5038421;28;20029;-55
2023/06/07 11:50:43;;;;;;;25.02;5.10;;;24.80;56.80;;;;;;5039483;28;20087;-55
2023/06/07 11:53:09;;;;;;;28.38;5.43;;;24.90;56.20;;;;;;5024476;28;20134;-55
2023/06/07 11:55:35;;;;;;;32.97;7.45;;;24.90;56.00;;;;;;5025087;28;20260;-55
2023/06/07 11:58:02;;;;;;;28.48;6.15;;;24.90;56.00;;;;;;5035388;28;20057;-54
2023/06/07 12:00:30;;;;;;;17.83;5.18;;;25.10;55.90;;;;;;5029264;28;20079;-55
2023/06/07 12:02:55;;;;;;;31.52;6.05;;;25.10;55.30;;;;;;5034471;28;20128;-55
2023/06/07 12:05:30;;;;;;;26.17;6.10;;;25.20;55.60;;;;;;5044269;28;20053;-55
2023/06/07 12:08:04;;;;;;;28.30;5.63;;;25.20;54.90;;;;;;5023516;28;20083;-55
2023/06/07 12:10:30;;;;;;;22.80;5.85;;;25.30;54.90;;;;;;5033219;28;20034;-55
2023/06/07 12:13:14;;;;;;;24.73;5.80;;;25.30;54.70;;;;;;5036985;28;20041;-55
2023/06/07 12:15:46;;;;;;;33.00;6.05;;;25.40;54.80;;;;;;5042271;28;20041;-55
2023/06/07 12:18:19;;;;;;;36.50;6.38;;;25.40;54.10;;;;;;5041884;28;20021;-55
2023/06/07 12:20:46;;;;;;;48.10;7.05;;;25.50;54.00;;;;;;5030108;28;20033;-55
2023/06/07 12:23:12;;;;;;;48.80;8.15;;;25.60;54.20;;;;;;5031939;28;20022;-55
2023/06/07 12:25:38;;;;;;;44.03;7.38;;;25.60;54.40;;;;;;5048186;28;20061;-55
2023/06/07 12:28:06;;;;;;;44.65;7.75;;;25.70;53.40;;;;;;5042434;28;20026;-55
2023/06/07 12:30:35;;;;;;;30.35;6.07;;;25.80;53.20;;;;;;5039814;28;20052;-54
2023/06/07 12:33:01;;;;;;;61.13;8.13;;;25.90;52.70;;;;;;5040178;28;20461;-55
2023/06/07 12:35:39;;;;;;;79.20;9.20;;;26.00;52.50;;;;;;5041376;28;20076;-54
2023/06/07 12:38:05;;;;;;;45.33;7.38;;;26.10;52.60;;;;;;5035033;28;20049;-54
2023/06/07 12:40:31;;;;;;;64.68;8.77;;;26.10;52.10;;;;;;5038242;28;20509;-55
2023/06/07 12:42:56;;;;;;;44.83;8.90;;;26.20;51.90;;;;;;5033620;28;20029;-55